createdAt,value
2022-10-05T00:02:25.246Z,7.50
2022-10-05T00:04:54.197Z,5.67
2022-10-05T00:07:22.555Z,6.83
2022-10-05T00:09:55.594Z,5.43
2022-10-05T00:12:23.428Z,6.33
2022-10-05T00:14:52.268Z,5.80
2022-10-05T00:17:21.453Z,4.60
2022-10-05T00:19:52.401Z,4.63
2022-10-05T00:22:23.807Z,5.37
2022-10-05T00:24:52.889Z,6.50
2022-10-05T00:27:22.055Z,8.83
2022-10-05T00:29:50.890Z,10.10
2022-10-05T00:32:18.209Z,9.67
2022-10-05T00:34:46.022Z,12.23
2022-10-05T00:37:14.596Z,10.67
2022-10-05T00:39:41.989Z,12.20
2022-10-05T00:42:12.269Z,15.87
2022-10-05T00:44:45.896Z,19.77
2022-10-05T00:47:31.914Z,19.93
2022-10-05T00:50:08.346Z,21.20
2022-10-05T00:52:40.713Z,21.53
2022-10-05T00:55:21.959Z,21.70
2022-10-05T00:58:02.425Z,21.03
2022-10-05T01:00:29.717Z,17.00
2022-10-05T01:03:12.886Z,18.40
2022-10-05T01:05:40.234Z,14.47
2022-10-05T01:08:16.789Z,16.37
2022-10-05T01:11:00.279Z,15.83
2022-10-05T01:13:27.484Z,17.23
2022-10-05T01:15:57.870Z,15.03
2022-10-05T01:18:25.139Z,14.30
2022-10-05T01:21:15.725Z,13.30
2022-10-05T01:24:02.646Z,15.17
2022-10-05T01:26:56.254Z,14.20
2022-10-05T01:29:25.156Z,14.37
2022-10-05T01:31:55.661Z,13.83
2022-10-05T01:34:38.963Z,16.77
2022-10-05T01:37:09.523Z,12.97
2022-10-05T01:39:46.065Z,13.27
2022-10-05T01:42:28.538Z,14.77
2022-10-05T01:45:02.575Z,13.60
2022-10-05T01:47:36.605Z,13.63
2022-10-05T01:50:09.710Z,13.27
2022-10-05T01:52:39.963Z,14.50
2022-10-05T01:55:07.376Z,15.03
2022-10-05T01:57:35.410Z,13.47
2022-10-05T02:00:07.771Z,14.13
2022-10-05T02:02:37.415Z,14.67
2022-10-05T02:05:04.946Z,12.67
2022-10-05T02:07:39.210Z,13.53
2022-10-05T02:10:11.218Z,14.03
2022-10-05T02:12:39.522Z,16.73
2022-10-05T02:15:18.309Z,14.30
2022-10-05T02:17:47.848Z,16.10
2022-10-05T02:20:18.526Z,16.83
2022-10-05T02:22:50.856Z,19.70
2022-10-05T02:25:20.573Z,18.80
2022-10-05T02:27:53.046Z,21.90
2022-10-05T02:30:20.443Z,22.37
2022-10-05T02:32:54.953Z,24.77
2022-10-05T02:35:22.808Z,22.43
2022-10-05T02:37:50.529Z,23.57
2022-10-05T02:40:24.011Z,21.73
2022-10-05T02:42:52.463Z,22.77
2022-10-05T02:45:26.312Z,25.73
2022-10-05T02:48:06.450Z,18.93
2022-10-05T02:50:33.879Z,17.90
2022-10-05T02:53:01.108Z,20.83
2022-10-05T02:55:37.273Z,17.57
2022-10-05T02:58:14.566Z,16.80
2022-10-05T03:01:11.194Z,18.10
2022-10-05T03:03:48.242Z,20.83
2022-10-05T03:06:15.462Z,24.80
2022-10-05T03:08:45.737Z,26.33
2022-10-05T03:11:23.251Z,26.00
2022-10-05T03:13:55.970Z,25.13
2022-10-05T03:16:29.541Z,26.57
2022-10-05T03:19:15.660Z,25.23
2022-10-05T03:21:49.204Z,22.27
2022-10-05T03:24:39.521Z,26.73
2022-10-05T03:27:22.729Z,23.20
2022-10-05T03:29:53.030Z,22.97
2022-10-05T03:32:23.241Z,22.57
2022-10-05T03:34:57.363Z,20.70
2022-10-05T03:37:34.235Z,23.77
2022-10-05T03:40:10.555Z,24.37
2022-10-05T03:42:53.707Z,23.87
2022-10-05T03:45:23.987Z,25.13
2022-10-05T03:48:03.882Z,23.23
2022-10-05T03:50:31.239Z,31.47
2022-10-05T03:53:00.818Z,30.63
2022-10-05T03:55:43.150Z,27.07
2022-10-05T03:58:23.444Z,30.33
2022-10-05T04:00:53.886Z,25.40
2022-10-05T04:03:40.083Z,22.63
2022-10-05T04:06:15.580Z,22.70
2022-10-05T04:08:51.576Z,24.53
2022-10-05T04:11:40.711Z,23.77
2022-10-05T04:14:12.010Z,23.50
2022-10-05T04:16:48.335Z,19.60
2022-10-05T04:19:24.464Z,18.83
2022-10-05T04:22:10.498Z,19.23
2022-10-05T04:24:40.675Z,24.47
2022-10-05T04:27:13.346Z,20.17
2022-10-05T04:29:47.506Z,18.03
2022-10-05T04:32:24.483Z,17.37
2022-10-05T04:35:07.198Z,22.67
2022-10-05T04:37:53.451Z,24.37
2022-10-05T04:40:24.001Z,25.40
2022-10-05T04:43:10.171Z,27.20
2022-10-05T04:45:52.898Z,27.90
2022-10-05T04:48:23.273Z,29.53
2022-10-05T04:50:58.994Z,36.23
2022-10-05T04:53:29.353Z,32.03
2022-10-05T04:56:15.633Z,49.00
2022-10-05T04:58:45.843Z,44.30
2022-10-05T05:01:22.846Z,33.93
2022-10-05T05:04:02.169Z,27.53
2022-10-05T05:06:32.799Z,22.90
2022-10-05T05:09:18.800Z,20.80
2022-10-05T05:12:06.397Z,19.43
2022-10-05T05:14:52.486Z,17.73
2022-10-05T05:17:43.723Z,19.50
2022-10-05T05:20:37.361Z,17.80
2022-10-05T05:23:11.546Z,17.87
2022-10-05T05:25:57.688Z,18.37
2022-10-05T05:28:27.990Z,16.33
2022-10-05T05:31:13.898Z,16.33
2022-10-05T05:33:44.177Z,17.73
2022-10-05T05:36:27.963Z,16.10
2022-10-05T05:38:55.209Z,20.30
2022-10-05T05:41:31.369Z,15.07
2022-10-05T05:44:04.660Z,16.57
2022-10-05T05:47:03.113Z,14.57
2022-10-05T05:49:49.748Z,13.07
2022-10-05T05:52:22.950Z,13.33
2022-10-05T05:54:53.232Z,15.20
2022-10-05T05:57:23.015Z,15.90
2022-10-05T05:59:53.644Z,14.03
2022-10-05T06:02:22.987Z,13.03
2022-10-05T06:04:56.692Z,13.93
2022-10-05T06:07:30.991Z,13.13
2022-10-05T06:10:24.949Z,15.43
2022-10-05T06:12:53.359Z,13.97
2022-10-05T06:15:23.720Z,13.57
2022-10-05T06:17:55.973Z,12.27
2022-10-05T06:20:29.574Z,10.87
2022-10-05T06:22:59.795Z,11.30
2022-10-05T06:25:50.340Z,10.50
2022-10-05T06:28:17.952Z,9.97
2022-10-05T06:31:04.163Z,9.30
2022-10-05T06:33:34.639Z,10.37
2022-10-05T06:36:13.178Z,9.17
2022-10-05T06:39:07.139Z,8.80
2022-10-05T06:41:53.080Z,8.33
2022-10-05T06:44:32.684Z,8.43
2022-10-05T06:47:03.095Z,7.80
2022-10-05T06:49:32.251Z,8.10
2022-10-05T06:52:05.586Z,9.03
2022-10-05T06:54:42.801Z,8.63
2022-10-05T06:57:20.937Z,7.90
2022-10-05T07:00:11.115Z,11.23
2022-10-05T07:02:55.352Z,8.03
2022-10-05T07:05:31.954Z,10.53
2022-10-05T07:08:01.119Z,7.83
2022-10-05T07:10:41.713Z,7.13
2022-10-05T07:13:12.069Z,6.53
2022-10-05T07:15:45.293Z,7.47
2022-10-05T07:18:51.375Z,9.37
2022-10-05T07:21:34.473Z,5.70
2022-10-05T07:24:21.735Z,6.83
2022-10-05T07:26:58.152Z,5.43
2022-10-05T07:29:31.495Z,5.50
2022-10-05T07:32:15.261Z,5.40
2022-10-05T07:34:54.795Z,4.37
2022-10-05T07:38:00.233Z,4.33
2022-10-05T07:40:38.073Z,6.93
2022-10-05T07:43:20.252Z,3.93
2022-10-05T07:45:51.961Z,3.70
2022-10-05T07:48:23.920Z,6.90
2022-10-05T07:50:54.164Z,4.20
2022-10-05T07:53:26.569Z,4.37
2022-10-05T07:55:59.042Z,3.80
2022-10-05T07:58:29.470Z,3.27
2022-10-05T08:00:56.722Z,4.07
2022-10-05T08:03:52.272Z,4.63
2022-10-05T08:06:25.806Z,3.70
2022-10-05T08:09:00.973Z,3.43
2022-10-05T08:11:35.577Z,3.47
2022-10-05T08:14:10.675Z,3.00
2022-10-05T08:16:39.071Z,3.30
2022-10-05T08:19:17.633Z,3.95
2022-10-05T08:21:53.191Z,3.38
2022-10-05T08:24:31.755Z,2.92
2022-10-05T08:27:05.361Z,3.20
2022-10-05T08:29:43.090Z,2.90
2022-10-05T08:32:15.044Z,3.20
2022-10-05T08:35:01.196Z,2.95
2022-10-05T08:37:35.341Z,2.97
2022-10-05T08:40:14.872Z,2.95
2022-10-05T08:42:54.137Z,2.83
2022-10-05T08:45:27.686Z,2.60
2022-10-05T08:48:13.871Z,2.90
2022-10-05T08:50:49.958Z,2.92
2022-10-05T08:53:22.791Z,2.47
2022-10-05T08:56:02.923Z,2.50
2022-10-05T08:58:33.318Z,3.05
2022-10-05T09:01:05.165Z,2.88
2022-10-05T09:03:55.747Z,2.80
2022-10-05T09:06:29.085Z,3.03
2022-10-05T09:09:15.094Z,2.47
2022-10-05T09:11:56.833Z,2.58
2022-10-05T09:14:40.255Z,2.30
2022-10-05T09:17:12.775Z,2.20
2022-10-05T09:19:53.301Z,2.28
2022-10-05T09:22:30.363Z,3.42
2022-10-05T09:25:26.001Z,2.15
2022-10-05T09:27:54.294Z,2.80
2022-10-05T09:30:21.638Z,2.20
2022-10-05T09:33:07.996Z,3.20
2022-10-05T09:35:53.940Z,2.38
2022-10-05T09:38:27.248Z,2.00
2022-10-05T09:41:00.801Z,2.55
2022-10-05T09:43:40.537Z,2.08
2022-10-05T09:46:33.788Z,2.10
2022-10-05T09:49:19.846Z,2.55
2022-10-05T09:52:06.879Z,1.90
2022-10-05T09:54:37.229Z,2.58
2022-10-05T09:57:24.774Z,3.58
2022-10-05T10:00:09.813Z,2.00
2022-10-05T10:02:56.192Z,2.17
2022-10-05T10:05:23.452Z,2.22
2022-10-05T10:08:14.048Z,1.95
2022-10-05T10:10:44.394Z,2.30
2022-10-05T10:13:26.953Z,1.70
2022-10-05T10:16:12.497Z,1.88
2022-10-05T10:18:46.097Z,2.22
2022-10-05T10:21:13.323Z,1.83
2022-10-05T10:24:00.410Z,2.00
2022-10-05T10:26:50.230Z,1.50
2022-10-05T10:29:36.558Z,1.70
2022-10-05T10:32:24.373Z,2.22
2022-10-05T10:35:04.416Z,1.73
2022-10-05T10:37:39.541Z,4.72
2022-10-05T10:40:28.700Z,2.35
2022-10-05T10:43:14.749Z,1.55
2022-10-05T10:46:00.871Z,1.70
2022-10-05T10:48:31.338Z,2.20
2022-10-05T10:51:13.664Z,3.10
2022-10-05T10:53:47.053Z,2.78
2022-10-05T10:56:20.300Z,1.60
2022-10-05T10:58:48.861Z,1.42
2022-10-05T11:01:22.364Z,1.70
2022-10-05T11:03:52.884Z,2.38
2022-10-05T11:06:33.640Z,2.88
2022-10-05T11:09:09.970Z,2.65
2022-10-05T11:11:56.189Z,2.00
2022-10-05T11:14:44.917Z,2.60
2022-10-05T11:17:15.646Z,1.52
2022-10-05T11:20:03.022Z,1.52
2022-10-05T11:22:50.231Z,1.88
2022-10-05T11:25:28.031Z,1.63
2022-10-05T11:27:55.806Z,1.52
2022-10-05T11:30:26.810Z,1.35
2022-10-05T11:33:13.130Z,2.53
2022-10-05T11:35:46.785Z,1.40
2022-10-05T11:38:32.549Z,2.05
2022-10-05T11:41:23.039Z,1.60
2022-10-05T11:43:58.582Z,4.43
2022-10-05T11:46:36.301Z,4.97
2022-10-05T11:49:16.435Z,2.20
2022-10-05T11:51:46.994Z,3.83
2022-10-05T11:54:20.594Z,2.08
2022-10-05T11:56:50.764Z,1.52
2022-10-05T11:59:34.520Z,2.40
2022-10-05T12:02:08.050Z,1.65
2022-10-05T12:04:55.513Z,1.52
2022-10-05T12:07:26.063Z,1.70
2022-10-05T12:10:11.883Z,1.60
2022-10-05T12:12:57.633Z,4.68
2022-10-05T12:15:40.928Z,3.08
2022-10-05T12:18:27.239Z,2.90
2022-10-05T12:21:17.603Z,1.80
2022-10-05T12:24:05.080Z,2.08
2022-10-05T12:26:35.685Z,1.92
2022-10-05T12:29:09.069Z,1.50
2022-10-05T12:31:40.028Z,2.67
2022-10-05T12:34:26.128Z,1.30
2022-10-05T12:37:05.392Z,1.23
2022-10-05T12:39:39.407Z,1.60
2022-10-05T12:42:26.891Z,1.95
2022-10-05T12:45:23.864Z,3.42
2022-10-05T12:47:53.750Z,1.38
2022-10-05T12:50:24.202Z,2.67
2022-10-05T12:52:59.273Z,2.53
2022-10-05T12:55:31.532Z,1.50
2022-10-05T12:58:17.226Z,1.50
2022-10-05T13:01:04.168Z,1.35
2022-10-05T13:03:35.292Z,1.60
2022-10-05T13:06:35.160Z,1.92
2022-10-05T13:09:10.259Z,1.80
2022-10-05T13:11:42.944Z,1.70
2022-10-05T13:14:19.831Z,2.15
2022-10-05T13:17:06.940Z,2.10
2022-10-05T13:19:34.770Z,3.30
2022-10-05T13:22:20.943Z,1.52
2022-10-05T13:25:06.734Z,1.45
2022-10-05T13:27:45.895Z,1.40
2022-10-05T13:30:16.315Z,1.98
2022-10-05T13:32:43.579Z,1.60
2022-10-05T13:35:23.322Z,1.45
2022-10-05T13:37:50.577Z,2.30
2022-10-05T13:40:17.986Z,3.75
2022-10-05T13:43:08.681Z,2.28
2022-10-05T13:45:56.831Z,2.15
2022-10-05T13:48:43.495Z,2.50
2022-10-05T13:51:19.214Z,2.17
2022-10-05T13:53:56.261Z,1.95
2022-10-05T13:56:40.359Z,3.35
2022-10-05T13:59:20.141Z,2.25
2022-10-05T14:01:50.542Z,2.30
2022-10-05T14:04:46.546Z,1.92
2022-10-05T14:07:34.110Z,3.63
2022-10-05T14:10:03.168Z,1.52
2022-10-05T14:12:37.407Z,2.03
2022-10-05T14:15:19.610Z,2.55
2022-10-05T14:17:47.240Z,3.83
2022-10-05T14:20:24.066Z,3.60
2022-10-05T14:22:57.236Z,3.25
2022-10-05T14:25:24.778Z,2.03
2022-10-05T14:27:52.051Z,2.15
2022-10-05T14:30:23.835Z,3.55
2022-10-05T14:33:17.798Z,2.17
2022-10-05T14:35:45.299Z,1.75
2022-10-05T14:38:26.492Z,1.73
2022-10-05T14:41:04.115Z,1.77
2022-10-05T14:43:31.706Z,2.15
2022-10-05T14:46:05.588Z,2.67
2022-10-05T14:48:42.439Z,2.53
2022-10-05T14:51:25.280Z,2.15
2022-10-05T14:54:03.944Z,2.03
2022-10-05T14:56:34.309Z,1.88
2022-10-05T14:59:07.703Z,3.95
2022-10-05T15:01:36.880Z,2.17
2022-10-05T15:04:23.250Z,2.47
2022-10-05T15:06:59.454Z,1.77
2022-10-05T15:09:46.392Z,1.30
2022-10-05T15:12:15.452Z,3.38
2022-10-05T15:14:44.378Z,1.85
2022-10-05T15:17:32.045Z,1.95
2022-10-05T15:19:59.365Z,2.75
2022-10-05T15:22:41.239Z,2.22
2022-10-05T15:25:16.661Z,1.90
2022-10-05T15:27:47.252Z,2.10
2022-10-05T15:30:19.623Z,2.40
2022-10-05T15:33:10.124Z,4.05
2022-10-05T15:35:40.728Z,5.63
2022-10-05T15:38:14.126Z,2.80
2022-10-05T15:40:50.733Z,6.40
2022-10-05T15:43:23.676Z,3.00
2022-10-05T15:45:53.927Z,2.40
2022-10-05T15:48:41.211Z,2.53
2022-10-05T15:51:15.234Z,4.63
2022-10-05T15:54:20.240Z,2.92
2022-10-05T15:57:14.681Z,3.40
2022-10-05T15:59:45.030Z,2.65
2022-10-05T16:02:30.286Z,3.00
2022-10-05T16:05:04.680Z,3.35
2022-10-05T16:07:58.484Z,3.60
2022-10-05T16:10:27.117Z,2.60
2022-10-05T16:13:05.522Z,5.78
2022-10-05T16:15:37.030Z,2.08
2022-10-05T16:18:31.400Z,3.03
2022-10-05T16:21:00.106Z,3.28
2022-10-05T16:23:36.905Z,4.25
2022-10-05T16:26:11.930Z,4.95
2022-10-05T16:28:52.951Z,2.28
2022-10-05T16:31:24.195Z,3.53
2022-10-05T16:33:54.553Z,4.47
2022-10-05T16:36:40.791Z,4.38
2022-10-05T16:39:14.089Z,3.08
2022-10-05T16:41:49.042Z,3.20
2022-10-05T16:44:22.483Z,3.58
2022-10-05T16:46:57.757Z,3.30
2022-10-05T16:49:39.426Z,3.00
2022-10-05T16:52:11.258Z,3.00
2022-10-05T16:54:47.509Z,3.10
2022-10-05T16:57:15.240Z,4.65
2022-10-05T16:59:45.563Z,3.97
2022-10-05T17:02:22.846Z,5.82
2022-10-05T17:04:58.113Z,8.95
2022-10-05T17:07:40.993Z,4.68
2022-10-05T17:10:27.105Z,3.72
2022-10-05T17:13:03.364Z,4.40
2022-10-05T17:15:31.785Z,3.65
2022-10-05T17:18:01.849Z,3.42
2022-10-05T17:20:42.480Z,7.43
2022-10-05T17:23:30.600Z,4.57
2022-10-05T17:26:02.182Z,3.42
2022-10-05T17:28:39.052Z,4.60
2022-10-05T17:31:06.569Z,3.38
2022-10-05T17:33:35.058Z,5.22
2022-10-05T17:36:06.448Z,3.53
2022-10-05T17:38:34.261Z,3.55
2022-10-05T17:41:03.186Z,5.57
2022-10-05T17:43:31.212Z,8.25
2022-10-05T17:46:00.728Z,17.45
2022-10-05T17:48:45.373Z,8.20
2022-10-05T17:51:54.165Z,9.45
2022-10-05T17:54:40.078Z,4.65
2022-10-05T17:57:07.564Z,5.47
2022-10-05T17:59:58.401Z,6.68
2022-10-05T18:02:40.461Z,4.63
2022-10-05T18:05:15.224Z,5.03
2022-10-05T18:07:48.584Z,3.95
2022-10-05T18:10:29.143Z,4.00
2022-10-05T18:12:59.500Z,4.10
2022-10-05T18:15:27.032Z,4.63
2022-10-05T18:17:57.581Z,5.43
2022-10-05T18:20:26.414Z,5.07
2022-10-05T18:22:55.738Z,5.18
2022-10-05T18:25:38.359Z,4.03
2022-10-05T18:28:18.007Z,4.40
2022-10-05T18:30:59.173Z,5.47
2022-10-05T18:33:32.451Z,3.63
2022-10-05T18:36:19.064Z,5.35
2022-10-05T18:39:05.055Z,6.10
2022-10-05T18:41:32.335Z,3.97
2022-10-05T18:44:14.249Z,4.95
2022-10-05T18:46:52.101Z,5.68
2022-10-05T18:49:22.517Z,5.70
2022-10-05T18:52:08.571Z,4.40
2022-10-05T18:55:05.170Z,4.70
2022-10-05T18:57:52.407Z,3.88
2022-10-05T19:00:21.095Z,5.60
2022-10-05T19:03:03.550Z,4.15
2022-10-05T19:05:47.492Z,5.00
2022-10-05T19:08:25.791Z,5.35
2022-10-05T19:10:54.549Z,7.47
2022-10-05T19:13:29.132Z,5.10
2022-10-05T19:15:56.478Z,4.97
2022-10-05T19:18:42.434Z,13.15
2022-10-05T19:21:22.025Z,6.47
2022-10-05T19:23:59.026Z,5.18
2022-10-05T19:26:46.994Z,5.03
2022-10-05T19:29:33.698Z,4.43
2022-10-05T19:32:04.651Z,4.93
2022-10-05T19:34:44.184Z,3.80
2022-10-05T19:37:13.282Z,4.35
2022-10-05T19:39:49.615Z,3.92
2022-10-05T19:42:19.925Z,3.20
2022-10-05T19:44:49.585Z,5.55
2022-10-05T19:47:23.953Z,6.93
2022-10-05T19:49:57.009Z,6.22
2022-10-05T19:52:24.315Z,5.32
2022-10-05T19:55:04.731Z,7.78
2022-10-05T19:57:32.848Z,8.57
2022-10-05T20:00:00.553Z,7.03
2022-10-05T20:02:28.023Z,5.30
2022-10-05T20:05:06.229Z,4.88
2022-10-05T20:07:34.422Z,5.22
2022-10-05T20:10:20.449Z,3.67
2022-10-05T20:12:50.608Z,3.42
2022-10-05T20:15:39.486Z,2.92
2022-10-05T20:18:44.459Z,7.13
2022-10-05T20:21:31.652Z,3.05
2022-10-05T20:24:12.675Z,4.45
2022-10-05T20:27:16.579Z,2.83
2022-10-05T20:29:45.267Z,2.80
2022-10-05T20:32:13.930Z,4.05
2022-10-05T20:34:42.598Z,2.85
2022-10-05T20:37:11.552Z,3.50
2022-10-05T20:39:39.271Z,3.78
2022-10-05T20:42:07.692Z,2.97
2022-10-05T20:44:35.514Z,2.35
2022-10-05T20:47:03.011Z,2.70
2022-10-05T20:49:36.583Z,2.60
2022-10-05T20:52:04.417Z,4.88
2022-10-05T20:54:31.752Z,2.58
2022-10-05T20:56:59.078Z,5.07
2022-10-05T20:59:26.773Z,4.18
2022-10-05T21:01:54.028Z,2.70
2022-10-05T21:04:23.096Z,2.53
2022-10-05T21:06:50.657Z,4.18
2022-10-05T21:09:19.682Z,2.88
2022-10-05T21:11:47.631Z,2.40
2022-10-05T21:14:15.066Z,3.83
2022-10-05T21:16:43.527Z,3.28
2022-10-05T21:19:15.527Z,5.53
2022-10-05T21:21:43.773Z,3.72
2022-10-05T21:24:13.794Z,2.75
2022-10-05T21:26:41.787Z,4.28
2022-10-05T21:29:12.454Z,2.17
2022-10-05T21:31:40.363Z,2.80
2022-10-05T21:34:08.345Z,2.30
2022-10-05T21:36:35.921Z,4.93
2022-10-05T21:39:03.171Z,2.10
2022-10-05T21:41:30.406Z,2.58
2022-10-05T21:43:57.633Z,2.13
2022-10-05T21:46:26.665Z,3.45
2022-10-05T21:48:55.180Z,3.33
2022-10-05T21:51:24.579Z,1.73
2022-10-05T21:53:54.618Z,2.03
2022-10-05T21:56:23.480Z,2.35
2022-10-05T21:58:51.435Z,2.22
2022-10-05T22:01:22.424Z,3.50
2022-10-05T22:03:50.327Z,1.83
2022-10-05T22:06:17.832Z,3.08
2022-10-05T22:08:45.248Z,1.85
2022-10-05T22:11:14.292Z,3.78
2022-10-05T22:13:48.685Z,2.35
2022-10-05T22:16:16.456Z,2.15
2022-10-05T22:18:44.071Z,2.10
2022-10-05T22:21:12.423Z,2.00
2022-10-05T22:23:40.317Z,3.80
2022-10-05T22:26:08.754Z,2.47
2022-10-05T22:28:36.050Z,3.63
2022-10-05T22:31:04.760Z,2.47
2022-10-05T22:33:32.034Z,2.42
2022-10-05T22:35:59.781Z,2.10
2022-10-05T22:38:27.668Z,2.83
2022-10-05T22:40:55.208Z,2.33
2022-10-05T22:43:22.487Z,2.95
2022-10-05T22:45:50.100Z,2.97
2022-10-05T22:48:17.379Z,2.63
2022-10-05T22:50:45.518Z,2.15
2022-10-05T22:53:13.496Z,2.10
2022-10-05T22:55:41.005Z,2.13
2022-10-05T22:58:08.222Z,2.42
2022-10-05T23:00:56.897Z,3.00
2022-10-05T23:03:22.868Z,2.95
2022-10-05T23:05:56.499Z,3.45
2022-10-05T23:08:24.339Z,2.17
2022-10-05T23:10:52.625Z,1.90
2022-10-05T23:13:20.033Z,2.43
2022-10-05T23:15:47.318Z,2.05
2022-10-05T23:18:16.706Z,2.85
2022-10-05T23:20:43.992Z,2.25
2022-10-05T23:23:11.313Z,2.47
2022-10-05T23:25:38.626Z,2.83
2022-10-05T23:28:05.936Z,1.90
2022-10-05T23:30:33.435Z,3.30
2022-10-05T23:33:00.707Z,4.97
2022-10-05T23:35:28.077Z,1.90
2022-10-05T23:37:55.296Z,2.23
2022-10-05T23:40:22.733Z,1.63
2022-10-05T23:42:50.104Z,3.60
2022-10-05T23:45:17.445Z,2.13
2022-10-05T23:47:44.769Z,2.40
2022-10-05T23:50:12.107Z,3.27
2022-10-05T23:52:39.553Z,3.13
2022-10-05T23:55:07.106Z,2.27
2022-10-05T23:57:34.434Z,4.87
